createdAt,value
2022-08-27T00:00:51.863Z,99003.19
2022-08-27T00:03:20.945Z,98998.41
2022-08-27T00:05:49.607Z,99002.84
2022-08-27T00:08:18.208Z,99002.84
2022-08-27T00:10:46.833Z,99010.31
2022-08-27T00:13:16.218Z,99003.84
2022-08-27T00:15:45.208Z,98998.63
2022-08-27T00:18:14.557Z,98999.31
2022-08-27T00:20:43.851Z,99002.53
2022-08-27T00:23:12.655Z,99003.56
2022-08-27T00:25:41.306Z,99011.41
2022-08-27T00:28:09.387Z,99012.22
2022-08-27T00:30:38.259Z,99010.34
2022-08-27T00:33:08.091Z,99010.16
2022-08-27T00:35:38.185Z,99015.31
2022-08-27T00:38:09.997Z,99000.13
2022-08-27T00:40:39.654Z,99006.97
2022-08-27T00:43:08.582Z,99007.81
2022-08-27T00:45:44.281Z,99011.22
2022-08-27T00:48:18.258Z,99007.97
2022-08-27T00:50:54.224Z,99018.50
2022-08-27T00:53:29.762Z,99017.81
2022-08-27T00:56:18.234Z,99015.13
2022-08-27T00:58:52.145Z,99017.47
2022-08-27T01:01:31.919Z,99011.00
2022-08-27T01:04:06.549Z,99020.53
2022-08-27T01:06:38.431Z,99023.31
2022-08-27T01:09:14.189Z,99025.50
2022-08-27T01:11:44.349Z,99027.25
2022-08-27T01:14:13.301Z,99022.75
2022-08-27T01:16:52.433Z,99022.75
2022-08-27T01:19:52.197Z,99030.81
2022-08-27T01:22:54.004Z,99028.41
2022-08-27T01:25:25.240Z,99028.00
2022-08-27T01:27:58.877Z,99028.69
2022-08-27T01:30:27.404Z,99028.69
2022-08-27T01:32:55.814Z,99034.50
2022-08-27T01:35:25.944Z,99031.03
2022-08-27T01:37:57.075Z,99021.13
2022-08-27T01:40:25.924Z,99022.88
2022-08-27T01:42:57.767Z,99023.06
2022-08-27T01:45:36.368Z,99023.13
2022-08-27T01:48:10.561Z,99022.19
2022-08-27T01:50:41.803Z,99015.06
2022-08-27T01:53:24.934Z,99020.44
2022-08-27T01:55:55.212Z,99027.53
2022-08-27T01:58:31.154Z,99024.91
2022-08-27T02:01:10.196Z,99025.09
2022-08-27T02:03:39.359Z,99020.72
2022-08-27T02:06:11.619Z,99026.09
2022-08-27T02:08:41.331Z,99028.97
2022-08-27T02:11:10.267Z,99027.78
2022-08-27T02:13:39.394Z,99030.34
2022-08-27T02:16:09.075Z,99037.66
2022-08-27T02:18:38.713Z,99034.94
2022-08-27T02:21:10.715Z,99033.22
2022-08-27T02:23:39.825Z,99031.72
2022-08-27T02:26:07.955Z,99027.34
2022-08-27T02:28:36.178Z,99030.16
2022-08-27T02:31:05.360Z,99032.81
2022-08-27T02:33:33.621Z,99038.25
2022-08-27T02:36:02.630Z,99032.31
2022-08-27T02:38:31.890Z,99033.84
2022-08-27T02:41:00.529Z,99028.66
2022-08-27T02:43:29.238Z,99032.63
2022-08-27T02:45:58.062Z,99033.88
2022-08-27T02:48:26.866Z,99031.25
2022-08-27T02:50:55.604Z,99031.41
2022-08-27T02:53:24.323Z,99027.53
2022-08-27T02:55:52.957Z,99028.53
2022-08-27T02:58:21.610Z,99028.19
2022-08-27T03:00:50.353Z,99025.25
2022-08-27T03:03:18.950Z,99021.69
2022-08-27T03:05:48.329Z,99019.88
2022-08-27T03:08:17.933Z,99020.88
2022-08-27T03:10:46.721Z,99020.44
2022-08-27T03:13:15.282Z,99025.44
2022-08-27T03:15:44.022Z,99026.00
2022-08-27T03:18:19.898Z,99026.00
2022-08-27T03:20:54.942Z,99032.72
2022-08-27T03:23:30.089Z,99020.66
2022-08-27T03:26:04.011Z,99028.78
2022-08-27T03:28:36.401Z,99029.19
2022-08-27T03:31:15.666Z,99024.97
2022-08-27T03:33:44.389Z,99023.94
2022-08-27T03:36:13.124Z,99023.38
2022-08-27T03:38:41.748Z,99025.88
2022-08-27T03:41:11.196Z,99034.78
2022-08-27T03:43:38.921Z,99026.63
2022-08-27T03:46:09.411Z,99031.38
2022-08-27T03:48:39.371Z,99024.16
2022-08-27T03:51:15.291Z,99024.38
2022-08-27T03:53:47.213Z,99024.91
2022-08-27T03:56:16.693Z,99024.28
2022-08-27T03:58:45.279Z,99028.75
2022-08-27T04:01:14.032Z,99030.44
2022-08-27T04:03:42.739Z,99035.91
2022-08-27T04:06:12.146Z,99037.22
2022-08-27T04:08:40.687Z,99042.25
2022-08-27T04:11:09.364Z,99043.16
2022-08-27T04:13:38.022Z,99042.25
2022-08-27T04:16:07.408Z,99035.72
2022-08-27T04:18:36.174Z,99038.50
2022-08-27T04:21:15.611Z,99042.94
2022-08-27T04:23:44.861Z,99042.00
2022-08-27T04:26:14.837Z,99042.50
2022-08-27T04:28:48.500Z,99042.69
2022-08-27T04:31:22.089Z,99040.22
2022-08-27T04:33:51.499Z,99036.97
2022-08-27T04:36:21.381Z,99044.75
2022-08-27T04:38:51.083Z,99036.22
2022-08-27T04:41:20.049Z,99031.97
2022-08-27T04:44:08.063Z,99043.16
2022-08-27T04:46:41.169Z,99041.47
2022-08-27T04:49:18.805Z,99037.38
2022-08-27T04:51:48.389Z,99037.38
2022-08-27T04:54:17.907Z,99040.16
2022-08-27T04:56:51.388Z,99048.84
2022-08-27T04:59:20.200Z,99043.97
2022-08-27T05:01:50.316Z,99053.38
2022-08-27T05:04:19.631Z,99044.78
2022-08-27T05:06:49.835Z,99034.56
2022-08-27T05:09:19.569Z,99047.34
2022-08-27T05:11:52.227Z,99046.72
2022-08-27T05:14:22.323Z,99036.88
2022-08-27T05:16:51.687Z,99041.34
2022-08-27T05:19:21.950Z,99046.75
2022-08-27T05:21:53.982Z,99039.59
2022-08-27T05:24:23.356Z,99047.81
2022-08-27T05:26:52.956Z,99052.66
2022-08-27T05:29:22.400Z,99039.78
2022-08-27T05:31:51.079Z,99056.66
2022-08-27T05:34:22.072Z,99054.13
2022-08-27T05:36:54.669Z,99059.25
2022-08-27T05:39:23.748Z,99065.53
2022-08-27T05:41:56.882Z,99058.03
2022-08-27T05:44:41.797Z,99060.53
2022-08-27T05:47:11.273Z,99062.75
2022-08-27T05:49:40.820Z,99060.19
2022-08-27T05:52:12.103Z,99070.66
2022-08-27T05:54:40.984Z,99071.69
2022-08-27T05:57:09.684Z,99068.53
2022-08-27T05:59:56.718Z,99076.78
2022-08-27T06:02:25.918Z,99074.16
2022-08-27T06:04:54.680Z,99071.63
2022-08-27T06:07:23.366Z,99081.31
2022-08-27T06:09:51.979Z,99074.41
2022-08-27T06:12:20.575Z,99075.81
2022-08-27T06:14:57.722Z,99084.88
2022-08-27T06:17:26.630Z,99081.19
2022-08-27T06:19:55.296Z,99079.19
2022-08-27T06:22:24.410Z,99071.47
2022-08-27T06:24:53.036Z,99072.63
2022-08-27T06:27:21.679Z,99082.56
2022-08-27T06:29:50.182Z,99088.84
2022-08-27T06:32:20.079Z,99082.53
2022-08-27T06:34:48.817Z,99087.47
2022-08-27T06:37:17.367Z,99094.56
2022-08-27T06:39:46.123Z,99095.56
2022-08-27T06:42:14.580Z,99105.59
2022-08-27T06:44:43.235Z,99094.31
2022-08-27T06:47:12.268Z,99101.00
2022-08-27T06:49:43.437Z,99124.13
2022-08-27T06:52:16.825Z,99116.44
2022-08-27T06:54:45.939Z,99127.56
2022-08-27T06:57:14.420Z,99133.00
2022-08-27T06:59:44.691Z,99136.00
2022-08-27T07:02:13.211Z,99149.06
2022-08-27T07:04:41.782Z,99125.91
2022-08-27T07:07:14.127Z,99114.91
2022-08-27T07:09:57.049Z,99113.75
2022-08-27T07:12:30.744Z,99107.75
2022-08-27T07:14:59.406Z,99115.41
2022-08-27T07:17:28.152Z,99111.97
2022-08-27T07:19:56.874Z,99112.59
2022-08-27T07:22:25.408Z,99115.66
2022-08-27T07:24:53.988Z,99141.34
2022-08-27T07:27:22.934Z,99146.66
2022-08-27T07:29:51.489Z,99151.88
2022-08-27T07:32:20.017Z,99154.75
2022-08-27T07:34:48.662Z,99135.22
2022-08-27T07:37:17.195Z,99133.00
2022-08-27T07:39:45.635Z,99131.34
2022-08-27T07:42:32.822Z,99139.97
2022-08-27T07:45:01.284Z,99142.06
2022-08-27T07:47:29.734Z,99135.91
2022-08-27T07:49:59.611Z,99141.03
2022-08-27T07:52:28.138Z,99142.75
2022-08-27T07:54:56.629Z,99147.69
2022-08-27T07:57:25.154Z,99144.81
2022-08-27T07:59:54.013Z,99148.31
2022-08-27T08:02:22.522Z,99143.06
2022-08-27T08:04:51.765Z,99149.63
2022-08-27T08:07:20.271Z,99144.50
2022-08-27T08:09:48.822Z,99141.13
2022-08-27T08:12:17.390Z,99148.34
2022-08-27T08:14:58.043Z,99141.34
2022-08-27T08:17:26.755Z,99138.41
2022-08-27T08:20:18.563Z,99142.56
2022-08-27T08:22:47.722Z,99141.75
2022-08-27T08:25:17.530Z,99143.56
2022-08-27T08:27:46.117Z,99138.31
2022-08-27T08:30:15.532Z,99135.94
2022-08-27T08:32:44.216Z,99137.84
2022-08-27T08:35:13.452Z,99147.50
2022-08-27T08:37:46.287Z,99140.16
2022-08-27T08:40:45.247Z,99141.00
2022-08-27T08:43:41.778Z,99147.75
2022-08-27T08:46:34.355Z,99142.66
2022-08-27T08:49:39.547Z,99147.81
2022-08-27T08:52:57.651Z,99146.28
2022-08-27T08:55:44.488Z,99154.19
2022-08-27T08:58:43.650Z,99151.19
2022-08-27T09:01:19.613Z,99146.47
2022-08-27T09:04:05.700Z,99150.22
2022-08-27T09:06:52.421Z,99152.97
2022-08-27T09:09:50.607Z,99149.84
2022-08-27T09:12:30.821Z,99149.00
2022-08-27T09:15:11.428Z,99139.25
2022-08-27T09:17:42.340Z,99152.53
2022-08-27T09:20:14.379Z,99137.16
2022-08-27T09:23:10.936Z,99139.66
2022-08-27T09:25:43.693Z,99140.78
2022-08-27T09:28:46.731Z,99151.47
2022-08-27T09:31:20.775Z,99126.66
2022-08-27T09:33:56.798Z,99130.22
2022-08-27T09:36:25.953Z,99132.38
2022-08-27T09:39:04.616Z,99122.84
2022-08-27T09:41:48.981Z,99127.25
2022-08-27T09:44:21.067Z,99121.50
2022-08-27T09:46:58.808Z,99122.00
2022-08-27T09:49:27.696Z,99118.84
2022-08-27T09:51:57.464Z,99116.63
2022-08-27T09:54:43.167Z,99126.66
2022-08-27T09:57:15.515Z,99131.22
2022-08-27T09:59:55.847Z,99124.41
2022-08-27T10:02:27.486Z,99128.53
2022-08-27T10:05:14.793Z,99119.06
2022-08-27T10:08:03.758Z,99127.50
2022-08-27T10:10:49.705Z,99123.78
2022-08-27T10:13:36.667Z,99115.69
2022-08-27T10:16:47.992Z,99122.41
2022-08-27T10:19:44.943Z,99113.66
2022-08-27T10:23:10.282Z,99115.69
2022-08-27T10:26:00.553Z,99115.91
2022-08-27T10:29:23.749Z,99111.00
2022-08-27T10:32:40.089Z,99111.78
2022-08-27T10:35:27.235Z,99114.19
2022-08-27T10:38:51.051Z,99110.72
2022-08-27T10:41:46.668Z,99108.75
2022-08-27T10:45:04.573Z,99104.78
2022-08-27T10:48:03.062Z,99112.56
2022-08-27T10:50:55.172Z,99106.28
2022-08-27T10:54:01.234Z,99106.69
2022-08-27T10:57:22.785Z,99103.44
2022-08-27T11:00:12.281Z,99105.69
2022-08-27T11:03:04.742Z,99103.69
2022-08-27T11:05:53.685Z,99101.91
2022-08-27T11:08:52.616Z,99100.84
2022-08-27T11:12:13.969Z,99091.69
2022-08-27T11:15:34.336Z,99089.41
2022-08-27T11:18:33.081Z,99089.97
2022-08-27T11:21:14.879Z,99096.16
2022-08-27T11:24:22.898Z,99090.56
2022-08-27T11:27:05.211Z,99083.50
2022-08-27T11:30:16.952Z,99084.44
2022-08-27T11:33:46.604Z,99083.97
2022-08-27T11:37:10.478Z,99074.66
2022-08-27T11:40:22.868Z,99074.88
2022-08-27T11:43:08.261Z,99075.63
2022-08-27T11:46:04.205Z,99082.13
2022-08-27T11:48:44.071Z,99077.28
2022-08-27T11:51:35.159Z,99078.50
2022-08-27T11:54:31.982Z,99076.44
2022-08-27T11:57:00.547Z,99078.13
2022-08-27T11:59:32.706Z,99075.06
2022-08-27T12:02:29.693Z,99078.19
2022-08-27T12:05:54.088Z,99074.41
2022-08-27T12:08:22.488Z,99058.81
2022-08-27T12:11:19.108Z,99060.88
2022-08-27T12:14:14.926Z,99056.81
2022-08-27T12:17:41.328Z,99052.00
2022-08-27T12:21:22.446Z,99053.63
2022-08-27T12:24:49.349Z,99043.69
2022-08-27T12:27:38.421Z,99047.19
2022-08-27T12:30:21.260Z,99049.47
2022-08-27T12:32:52.651Z,99045.75
2022-08-27T12:35:50.133Z,99044.06
2022-08-27T12:38:21.090Z,99029.41
2022-08-27T12:41:00.394Z,99026.31
2022-08-27T12:43:35.477Z,99023.72
2022-08-27T12:46:20.121Z,99017.56
2022-08-27T12:49:35.906Z,99018.19
2022-08-27T12:51:49.153Z,99015.91
2022-08-27T12:55:19.784Z,99015.41
2022-08-27T12:57:53.778Z,99004.84
2022-08-27T13:00:26.267Z,99008.75
2022-08-27T13:03:20.629Z,99013.03
2022-08-27T13:05:56.852Z,99001.69
2022-08-27T13:08:33.949Z,98994.41
2022-08-27T13:11:31.198Z,99001.22
2022-08-27T13:14:20.290Z,99000.06
2022-08-27T13:17:07.960Z,98994.09
2022-08-27T13:20:00.902Z,99001.09
2022-08-27T13:22:40.719Z,99000.13
2022-08-27T13:25:27.597Z,98994.53
2022-08-27T13:28:11.714Z,98996.34
2022-08-27T13:30:46.852Z,99000.38
2022-08-27T13:33:28.638Z,98997.63
2022-08-27T13:35:58.819Z,98994.69
2022-08-27T13:38:36.191Z,98996.47
2022-08-27T13:41:32.055Z,98996.44
2022-08-27T13:44:35.186Z,98996.97
2022-08-27T13:47:30.830Z,98990.50
2022-08-27T13:50:14.468Z,98990.75
2022-08-27T13:53:01.565Z,98993.44
2022-08-27T13:55:33.614Z,98991.78
2022-08-27T13:58:25.654Z,98988.78
2022-08-27T14:00:56.153Z,98995.09
2022-08-27T14:03:36.629Z,98993.44
2022-08-27T14:06:05.759Z,98990.78
2022-08-27T14:08:36.755Z,98987.97
2022-08-27T14:11:10.377Z,98987.72
2022-08-27T14:13:46.049Z,98993.63
2022-08-27T14:16:28.976Z,98989.56
2022-08-27T14:19:12.104Z,98990.19
2022-08-27T14:21:43.710Z,98985.31
2022-08-27T14:24:13.801Z,98985.28
2022-08-27T14:26:42.316Z,98993.66
2022-08-27T14:29:12.191Z,98992.53
2022-08-27T14:31:41.919Z,98995.22
2022-08-27T14:34:10.453Z,98989.47
2022-08-27T14:36:41.365Z,98994.16
2022-08-27T14:39:11.564Z,98982.53
2022-08-27T14:41:40.666Z,98978.41
2022-08-27T14:44:09.346Z,98987.53
2022-08-27T14:46:41.605Z,98988.41
2022-08-27T14:49:28.151Z,98983.75
2022-08-27T14:51:56.673Z,98980.53
2022-08-27T14:54:29.204Z,98993.44
2022-08-27T14:57:04.273Z,98988.63
2022-08-27T14:59:33.910Z,98991.38
2022-08-27T15:02:08.669Z,98999.47
2022-08-27T15:04:37.220Z,98996.22
2022-08-27T15:07:07.066Z,98995.09
2022-08-27T15:09:35.518Z,98995.09
2022-08-27T15:12:04.555Z,98994.22
2022-08-27T15:14:37.083Z,98996.97
2022-08-27T15:17:12.292Z,99000.34
2022-08-27T15:19:57.695Z,98996.22
2022-08-27T15:22:33.996Z,98997.16
2022-08-27T15:25:05.378Z,98994.00
2022-08-27T15:27:38.594Z,98992.81
2022-08-27T15:30:15.419Z,98989.50
2022-08-27T15:32:48.314Z,98997.22
2022-08-27T15:35:26.686Z,98996.16
2022-08-27T15:37:58.417Z,98998.00
2022-08-27T15:40:32.205Z,98994.34
2022-08-27T15:43:05.837Z,98991.84
2022-08-27T15:45:36.793Z,98988.13
2022-08-27T15:48:06.070Z,98996.69
2022-08-27T15:50:35.198Z,98997.59
2022-08-27T15:53:07.794Z,98990.66
2022-08-27T15:55:40.653Z,98989.94
2022-08-27T15:58:11.016Z,98994.47
2022-08-27T16:00:40.388Z,98994.69
2022-08-27T16:03:13.288Z,98986.25
2022-08-27T16:05:45.050Z,98997.31
2022-08-27T16:08:15.097Z,98992.34
2022-08-27T16:10:43.530Z,98988.50
2022-08-27T16:13:12.020Z,98985.97
2022-08-27T16:15:43.351Z,98988.78
2022-08-27T16:18:12.523Z,98994.44
2022-08-27T16:20:42.222Z,98994.44
2022-08-27T16:23:10.707Z,99001.59
2022-08-27T16:25:39.279Z,98998.81
2022-08-27T16:28:16.630Z,98996.38
2022-08-27T16:30:45.093Z,99000.91
2022-08-27T16:33:14.512Z,99008.81
2022-08-27T16:35:43.389Z,99009.44
2022-08-27T16:38:13.008Z,99009.19
2022-08-27T16:40:52.316Z,98997.72
2022-08-27T16:43:26.598Z,98999.88
2022-08-27T16:45:59.689Z,99005.69
2022-08-27T16:48:48.356Z,99011.78
2022-08-27T16:51:36.064Z,99009.28
2022-08-27T16:54:07.521Z,99003.66
2022-08-27T16:56:37.865Z,98998.16
2022-08-27T16:59:08.016Z,99001.91
2022-08-27T17:01:36.568Z,98995.84
2022-08-27T17:04:16.135Z,98996.38
2022-08-27T17:06:51.795Z,99001.28
2022-08-27T17:09:20.597Z,99000.22
2022-08-27T17:11:57.897Z,98998.72
2022-08-27T17:14:27.022Z,98999.31
2022-08-27T17:16:56.573Z,98992.00
2022-08-27T17:19:26.311Z,99001.88
2022-08-27T17:21:55.271Z,99001.97
2022-08-27T17:24:24.087Z,99002.84
2022-08-27T17:26:52.627Z,99006.44
2022-08-27T17:29:21.201Z,99014.44
2022-08-27T17:31:49.768Z,99009.88
2022-08-27T17:34:25.085Z,99018.59
2022-08-27T17:36:54.802Z,99026.41
2022-08-27T17:39:23.935Z,99027.56
2022-08-27T17:41:54.709Z,99026.31
2022-08-27T17:44:32.634Z,99026.44
2022-08-27T17:47:05.539Z,99039.09
2022-08-27T17:49:34.928Z,99039.94
2022-08-27T17:52:12.617Z,99054.00
2022-08-27T17:54:54.234Z,99052.38
2022-08-27T17:57:41.091Z,99058.28
2022-08-27T18:00:15.012Z,99065.03
2022-08-27T18:02:49.455Z,99068.84
2022-08-27T18:05:24.712Z,99060.84
2022-08-27T18:07:54.261Z,99061.28
2022-08-27T18:10:26.329Z,99062.13
2022-08-27T18:12:57.521Z,99069.97
2022-08-27T18:15:32.282Z,99066.59
2022-08-27T18:18:02.353Z,99071.22
2022-08-27T18:20:34.458Z,99069.31
2022-08-27T18:23:07.252Z,99079.94
2022-08-27T18:25:39.893Z,99076.59
2022-08-27T18:28:13.021Z,99073.66
2022-08-27T18:30:44.688Z,99074.31
2022-08-27T18:33:14.746Z,99079.19
2022-08-27T18:35:43.795Z,99082.97
2022-08-27T18:38:13.509Z,99078.31
2022-08-27T18:40:48.893Z,99081.06
2022-08-27T18:43:19.737Z,99088.47
2022-08-27T18:45:48.941Z,99087.38
2022-08-27T18:48:22.573Z,99089.09
2022-08-27T18:50:58.795Z,99086.78
2022-08-27T18:53:32.675Z,99097.38
2022-08-27T18:56:02.659Z,99087.75
2022-08-27T18:58:31.108Z,99098.09
2022-08-27T19:01:04.679Z,99102.72
2022-08-27T19:03:54.934Z,99102.56
2022-08-27T19:06:23.947Z,99095.91
2022-08-27T19:08:54.171Z,99100.59
2022-08-27T19:11:22.823Z,99104.47
2022-08-27T19:13:51.428Z,99100.94
2022-08-27T19:16:44.672Z,99105.19
2022-08-27T19:19:17.643Z,99111.66
2022-08-27T19:21:51.174Z,99106.78
2022-08-27T19:24:22.603Z,99107.72
2022-08-27T19:26:53.046Z,99105.94
2022-08-27T19:29:21.775Z,99107.94
2022-08-27T19:31:50.413Z,99104.44
2022-08-27T19:34:20.182Z,99100.56
2022-08-27T19:36:49.066Z,99096.13
2022-08-27T19:39:17.707Z,99098.81
2022-08-27T19:41:46.368Z,99106.78
2022-08-27T19:44:14.960Z,99094.44
2022-08-27T19:46:43.659Z,99104.28
2022-08-27T19:49:12.128Z,99108.19
2022-08-27T19:51:40.656Z,99106.56
2022-08-27T19:54:09.134Z,99106.41
2022-08-27T19:56:38.206Z,99106.66
2022-08-27T19:59:20.511Z,99107.50
2022-08-27T20:01:52.837Z,99096.72
2022-08-27T20:04:21.889Z,99096.06
2022-08-27T20:06:50.611Z,99090.97
2022-08-27T20:09:21.839Z,99091.50
2022-08-27T20:11:50.701Z,99085.13
2022-08-27T20:14:20.414Z,99083.25
2022-08-27T20:16:49.251Z,99080.78
2022-08-27T20:19:20.154Z,99083.00
2022-08-27T20:21:49.199Z,99084.13
2022-08-27T20:24:18.180Z,99083.94
2022-08-27T20:26:47.498Z,99075.09
2022-08-27T20:29:22.450Z,99070.19
2022-08-27T20:32:02.320Z,99059.91
2022-08-27T20:34:32.666Z,99062.53
2022-08-27T20:37:05.525Z,99058.38
2022-08-27T20:39:34.341Z,99061.41
2022-08-27T20:42:03.134Z,99068.31
2022-08-27T20:44:31.931Z,99071.69
2022-08-27T20:47:02.612Z,99072.28
2022-08-27T20:49:31.720Z,99074.31
2022-08-27T20:52:03.572Z,99073.31
2022-08-27T20:54:34.073Z,99073.75
2022-08-27T20:57:04.414Z,99081.47
2022-08-27T20:59:51.847Z,99072.84
2022-08-27T21:02:29.542Z,99080.06
2022-08-27T21:05:06.413Z,99084.59
2022-08-27T21:07:35.070Z,99094.31
2022-08-27T21:10:06.112Z,99099.06
2022-08-27T21:12:35.133Z,99097.34
2022-08-27T21:15:06.896Z,99100.75
2022-08-27T21:17:36.037Z,99099.06
2022-08-27T21:20:13.788Z,99101.59
2022-08-27T21:22:44.526Z,99099.50
2022-08-27T21:25:14.749Z,99103.34
2022-08-27T21:27:43.790Z,99105.94
2022-08-27T21:30:13.856Z,99109.50
2022-08-27T21:32:42.566Z,99112.97
2022-08-27T21:35:11.644Z,99111.75
2022-08-27T21:37:41.987Z,99112.63
2022-08-27T21:40:11.496Z,99113.22
2022-08-27T21:42:40.323Z,99107.88
2022-08-27T21:45:09.363Z,99115.47
2022-08-27T21:47:39.102Z,99112.03
2022-08-27T21:50:10.087Z,99115.06
2022-08-27T21:52:39.464Z,99110.50
2022-08-27T21:55:10.384Z,99108.59
2022-08-27T21:57:39.169Z,99109.47
2022-08-27T22:00:45.955Z,99117.66
2022-08-27T22:03:19.241Z,99110.03
2022-08-27T22:05:49.633Z,99117.56
2022-08-27T22:08:21.729Z,99111.56
2022-08-27T22:10:57.935Z,99121.56
2022-08-27T22:13:26.951Z,99120.25
2022-08-27T22:15:55.696Z,99123.91
2022-08-27T22:18:25.024Z,99123.16
2022-08-27T22:20:54.805Z,99129.78
2022-08-27T22:23:23.449Z,99119.75
2022-08-27T22:25:52.087Z,99129.06
2022-08-27T22:28:20.826Z,99123.22
2022-08-27T22:30:49.524Z,99114.50
2022-08-27T22:33:19.075Z,99119.75
2022-08-27T22:35:48.415Z,99115.25
2022-08-27T22:38:17.861Z,99117.63
2022-08-27T22:40:46.497Z,99120.47
2022-08-27T22:43:16.424Z,99112.16
2022-08-27T22:45:45.086Z,99116.28
2022-08-27T22:48:14.190Z,99110.72
2022-08-27T22:50:42.900Z,99114.59
2022-08-27T22:53:12.223Z,99106.91
2022-08-27T22:55:40.984Z,99107.69
2022-08-27T22:58:09.665Z,99099.34
2022-08-27T23:00:40.658Z,99092.97
2022-08-27T23:03:11.716Z,99090.56
2022-08-27T23:05:41.808Z,99080.75
2022-08-27T23:08:14.100Z,99083.66
2022-08-27T23:10:43.924Z,99083.59
2022-08-27T23:13:13.382Z,99087.16
2022-08-27T23:15:42.702Z,99088.47
2022-08-27T23:18:12.576Z,99093.13
2022-08-27T23:20:42.035Z,99091.72
2022-08-27T23:23:10.811Z,99091.16
2022-08-27T23:25:57.985Z,99089.88
2022-08-27T23:28:26.760Z,99092.94
2022-08-27T23:30:55.467Z,99102.97
2022-08-27T23:33:24.194Z,99102.66
2022-08-27T23:35:52.892Z,99108.44
2022-08-27T23:38:22.840Z,99112.84
2022-08-27T23:40:53.451Z,99107.53
2022-08-27T23:43:22.402Z,99107.31
2022-08-27T23:45:52.173Z,99108.56
2022-08-27T23:48:21.432Z,99120.97
2022-08-27T23:50:50.100Z,99116.91
2022-08-27T23:53:18.916Z,99108.66
2022-08-27T23:55:47.643Z,99105.91
2022-08-27T23:58:16.264Z,99111.38
